KAL725 RKSI-RJBB
Flight info
| Callsign | KAL725 |
|---|---|
| Flight time | N/A |
| Altitude | 39000 |
| Route | EGOBA2H EGOBA DCT LANAT Y597 MIHOU SAEKI Y36 ATMUG |
| Aircraft | B77W/H-SDE1E2E3FGHIJ2J3J4J5M1RWXY/LB1D1 |
Departure
| Time | 2026-05-06 06:08 |
|---|---|
| Airport | Incheon International Airport (RKSI) |
Arrival
| Time | N/A |
|---|---|
| Airport | Kansai International Airport (RJBB) |
| Time | Latitude | Longitude | Altitude | Speed | Heading |
|---|---|---|---|---|---|
| 2026-05-06 05:41 | 37.46325 | 126.43203 | 36 ft | 0 kts | 66° |
| 2026-05-06 05:55 | 37.46320 | 126.43192 | 36 ft | 2 kts | 66° |
| 2026-05-06 05:56 | 37.46314 | 126.43175 | 36 ft | 2 kts | 66° |
| 2026-05-06 05:56 | 37.46310 | 126.43164 | 36 ft | 2 kts | 65° |
| 2026-05-06 05:56 | 37.46303 | 126.43147 | 36 ft | 2 kts | 51° |
| 2026-05-06 05:56 | 37.46293 | 126.43134 | 36 ft | 2 kts | 39° |
| 2026-05-06 05:57 | 37.46281 | 126.43123 | 36 ft | 2 kts | 28° |
| 2026-05-06 05:57 | 37.46267 | 126.43115 | 36 ft | 2 kts | 17° |
| 2026-05-06 05:57 | 37.46253 | 126.43111 | 36 ft | 2 kts | 6° |
| 2026-05-06 05:57 | 37.46238 | 126.43110 | 36 ft | 2 kts | 355° |
| 2026-05-06 05:58 | 37.46223 | 126.43113 | 36 ft | 2 kts | 343° |
| 2026-05-06 05:58 | 37.46211 | 126.43119 | 36 ft | 0 kts | 334° |
| 2026-05-06 05:58 | 37.46209 | 126.43121 | 36 ft | 0 kts | 333° |
| 2026-05-06 06:02 | 37.46210 | 126.43120 | 36 ft | 0 kts | 333° |
| 2026-05-06 06:02 | 37.46217 | 126.43115 | 36 ft | 2 kts | 334° |
| 2026-05-06 06:02 | 37.46243 | 126.43101 | 36 ft | 5 kts | 335° |
| 2026-05-06 06:02 | 37.46288 | 126.43075 | 36 ft | 8 kts | 335° |
| 2026-05-06 06:03 | 37.46342 | 126.43031 | 36 ft | 9 kts | 297° |
| 2026-05-06 06:03 | 37.46328 | 126.42948 | 36 ft | 11 kts | 238° |
| 2026-05-06 06:03 | 37.46282 | 126.42860 | 36 ft | 12 kts | 236° |
| 2026-05-06 06:03 | 37.46244 | 126.42760 | 36 ft | 12 kts | 279° |
| 2026-05-06 06:04 | 37.46304 | 126.42683 | 36 ft | 13 kts | 326° |
| 2026-05-06 06:04 | 37.46386 | 126.42613 | 36 ft | 14 kts | 324° |
| 2026-05-06 06:04 | 37.46474 | 126.42533 | 36 ft | 16 kts | 323° |
| 2026-05-06 06:04 | 37.46568 | 126.42448 | 36 ft | 17 kts | 324° |
| 2026-05-06 06:05 | 37.46669 | 126.42357 | 36 ft | 18 kts | 323° |
| 2026-05-06 06:05 | 37.46778 | 126.42260 | 35 ft | 19 kts | 324° |
| 2026-05-06 06:05 | 37.46892 | 126.42158 | 36 ft | 20 kts | 324° |
| 2026-05-06 06:05 | 37.47010 | 126.42052 | 35 ft | 21 kts | 324° |
| 2026-05-06 06:06 | 37.47136 | 126.41940 | 36 ft | 22 kts | 324° |
| 2026-05-06 06:06 | 37.47267 | 126.41825 | 36 ft | 23 kts | 325° |
| 2026-05-06 06:06 | 37.47345 | 126.41721 | 36 ft | 11 kts | 264° |
| 2026-05-06 06:06 | 37.47303 | 126.41626 | 36 ft | 13 kts | 236° |
| 2026-05-06 06:07 | 37.47236 | 126.41588 | 35 ft | 12 kts | 148° |
| 2026-05-06 06:07 | 37.47214 | 126.41607 | 35 ft | 0 kts | 144° |
| 2026-05-06 06:07 | 37.47211 | 126.41610 | 36 ft | 3 kts | 144° |
| 2026-05-06 06:07 | 37.47097 | 126.41709 | 36 ft | 50 kts | 146° |
| 2026-05-06 06:08 | 37.46595 | 126.42156 | 36 ft | 121 kts | 144° |
| 2026-05-06 06:08 | 37.45755 | 126.42918 | 207 ft | 163 kts | 148° |
| 2026-05-06 06:08 | 37.44794 | 126.43725 | 865 ft | 169 kts | 153° |
| 2026-05-06 06:08 | 37.43789 | 126.44492 | 1704 ft | 171 kts | 154° |
| 2026-05-06 06:09 | 37.42771 | 126.45258 | 2289 ft | 179 kts | 154° |
| 2026-05-06 06:09 | 37.41647 | 126.46103 | 2712 ft | 197 kts | 154° |
| 2026-05-06 06:09 | 37.40431 | 126.47024 | 3189 ft | 212 kts | 153° |
| 2026-05-06 06:09 | 37.39128 | 126.48009 | 3680 ft | 228 kts | 154° |
| 2026-05-06 06:10 | 37.38314 | 126.48492 | 3952 ft | 235 kts | 164° |
| 2026-05-06 06:10 | 37.36230 | 126.49243 | 4576 ft | 256 kts | 168° |
| 2026-05-06 06:10 | 37.34457 | 126.49834 | 5227 ft | 267 kts | 167° |
| 2026-05-06 06:10 | 37.32661 | 126.50439 | 6028 ft | 272 kts | 167° |
| 2026-05-06 06:11 | 37.30824 | 126.51072 | 6812 ft | 277 kts | 164° |
| 2026-05-06 06:11 | 37.29148 | 126.52262 | 7587 ft | 285 kts | 139° |
| 2026-05-06 06:11 | 37.28008 | 126.54313 | 8366 ft | 292 kts | 111° |
| 2026-05-06 06:11 | 37.27575 | 126.56778 | 9188 ft | 295 kts | 98° |
| 2026-05-06 06:12 | 37.27368 | 126.59354 | 9767 ft | 301 kts | 96° |
| 2026-05-06 06:12 | 37.27179 | 126.62003 | 9932 ft | 303 kts | 95° |
| 2026-05-06 06:12 | 37.27211 | 126.64709 | 9991 ft | 318 kts | 87° |
| 2026-05-06 06:12 | 37.27367 | 126.67564 | 10305 ft | 338 kts | 87° |
| 2026-05-06 06:13 | 37.27535 | 126.70564 | 10693 ft | 356 kts | 87° |
| 2026-05-06 06:13 | 37.27709 | 126.73749 | 11111 ft | 373 kts | 87° |
| 2026-05-06 06:13 | 37.27889 | 126.77059 | 11604 ft | 388 kts | 87° |
| 2026-05-06 06:13 | 37.28071 | 126.80454 | 12320 ft | 396 kts | 87° |
| 2026-05-06 06:14 | 37.28257 | 126.83935 | 13272 ft | 401 kts | 86° |
| 2026-05-06 06:14 | 37.28444 | 126.87440 | 14184 ft | 406 kts | 86° |
| 2026-05-06 06:14 | 37.28653 | 126.90961 | 15044 ft | 416 kts | 84° |
| 2026-05-06 06:14 | 37.28986 | 126.94584 | 15964 ft | 424 kts | 83° |
| 2026-05-06 06:15 | 37.29339 | 126.98318 | 17020 ft | 429 kts | 83° |
| 2026-05-06 06:15 | 37.29687 | 127.02043 | 17933 ft | 436 kts | 83° |
| 2026-05-06 06:15 | 37.30038 | 127.05855 | 18796 ft | 444 kts | 83° |
| 2026-05-06 06:15 | 37.30389 | 127.09691 | 19686 ft | 451 kts | 82° |
| 2026-05-06 06:16 | 37.30995 | 127.13577 | 20653 ft | 453 kts | 72° |
| 2026-05-06 06:16 | 37.31943 | 127.17346 | 21475 ft | 460 kts | 68° |
| 2026-05-06 06:16 | 37.33201 | 127.21011 | 22310 ft | 462 kts | 58° |
| 2026-05-06 06:16 | 37.34959 | 127.24451 | 23122 ft | 464 kts | 49° |
| 2026-05-06 06:17 | 37.36868 | 127.27685 | 23930 ft | 471 kts | 53° |
| 2026-05-06 06:17 | 37.38479 | 127.31284 | 24840 ft | 477 kts | 58° |
| 2026-05-06 06:17 | 37.40009 | 127.35010 | 25710 ft | 480 kts | 59° |
| 2026-05-06 06:17 | 37.41332 | 127.38842 | 26407 ft | 491 kts | 67° |
| 2026-05-06 06:18 | 37.42207 | 127.43024 | 27119 ft | 501 kts | 76° |
| 2026-05-06 06:18 | 37.42560 | 127.47446 | 27921 ft | 509 kts | 85° |
| 2026-05-06 06:18 | 37.42477 | 127.51870 | 28692 ft | 515 kts | 91° |
| 2026-05-06 06:18 | 37.42105 | 127.56368 | 29382 ft | 522 kts | 95° |
| 2026-05-06 06:19 | 37.41478 | 127.60901 | 30206 ft | 525 kts | 98° |
| 2026-05-06 06:19 | 37.40706 | 127.65300 | 31121 ft | 524 kts | 100° |
| 2026-05-06 06:19 | 37.39827 | 127.69769 | 31962 ft | 523 kts | 102° |
| 2026-05-06 06:19 | 37.38898 | 127.74139 | 32611 ft | 525 kts | 102° |
| 2026-05-06 06:20 | 37.37913 | 127.78526 | 33251 ft | 526 kts | 103° |
| 2026-05-06 06:20 | 37.36878 | 127.82951 | 33955 ft | 526 kts | 104° |
| 2026-05-06 06:20 | 37.35817 | 127.87353 | 34800 ft | 524 kts | 103° |
| 2026-05-06 06:20 | 37.34748 | 127.91698 | 35600 ft | 521 kts | 104° |
| 2026-05-06 06:21 | 37.33662 | 127.96046 | 36380 ft | 517 kts | 104° |
| 2026-05-06 06:21 | 37.32569 | 128.00369 | 36943 ft | 518 kts | 103° |
| 2026-05-06 06:21 | 37.30393 | 128.08867 | 36966 ft | 518 kts | 103° |
| 2026-05-06 06:22 | 37.28166 | 128.17459 | 36956 ft | 518 kts | 103° |